sensor_id;sensor_type;location;lat;lon;timestamp;P1;durP1;ratioP1;P2;durP2;ratioP2
84329;SDS011;74510;42.676;23.432;2023-12-22T00:02:16;28.42;;;15.52;;
84329;SDS011;74510;42.676;23.432;2023-12-22T00:04:42;28.88;;;16.75;;
84329;SDS011;74510;42.676;23.432;2023-12-22T00:07:07;34.50;;;18.77;;
84329;SDS011;74510;42.676;23.432;2023-12-22T00:09:32;31.50;;;16.08;;
84329;SDS011;74510;42.676;23.432;2023-12-22T00:11:58;27.75;;;15.88;;
84329;SDS011;74510;42.676;23.432;2023-12-22T00:14:23;24.25;;;15.05;;
84329;SDS011;74510;42.676;23.432;2023-12-22T00:16:49;25.30;;;13.90;;
84329;SDS011;74510;42.676;23.432;2023-12-22T00:19:14;25.25;;;15.43;;
84329;SDS011;74510;42.676;23.432;2023-12-22T00:21:39;27.30;;;14.27;;
84329;SDS011;74510;42.676;23.432;2023-12-22T00:24:05;26.63;;;14.82;;
84329;SDS011;74510;42.676;23.432;2023-12-22T00:26:30;29.75;;;14.55;;
84329;SDS011;74510;42.676;23.432;2023-12-22T00:28:56;24.83;;;13.95;;
84329;SDS011;74510;42.676;23.432;2023-12-22T00:31:21;26.08;;;15.20;;
84329;SDS011;74510;42.676;23.432;2023-12-22T00:33:47;25.10;;;13.30;;
84329;SDS011;74510;42.676;23.432;2023-12-22T00:36:12;25.20;;;14.48;;
84329;SDS011;74510;42.676;23.432;2023-12-22T00:38:37;30.25;;;15.57;;
84329;SDS011;74510;42.676;23.432;2023-12-22T00:41:03;32.40;;;16.67;;
84329;SDS011;74510;42.676;23.432;2023-12-22T00:43:28;31.30;;;15.88;;
84329;SDS011;74510;42.676;23.432;2023-12-22T00:45:54;41.25;;;20.05;;
84329;SDS011;74510;42.676;23.432;2023-12-22T00:48:21;41.28;;;19.23;;
84329;SDS011;74510;42.676;23.432;2023-12-22T00:50:46;35.45;;;17.00;;
84329;SDS011;74510;42.676;23.432;2023-12-22T00:53:12;40.65;;;19.27;;
84329;SDS011;74510;42.676;23.432;2023-12-22T00:55:37;45.33;;;21.98;;
84329;SDS011;74510;42.676;23.432;2023-12-22T00:58:03;38.13;;;20.50;;
84329;SDS011;74510;42.676;23.432;2023-12-22T01:00:29;39.58;;;21.90;;
84329;SDS011;74510;42.676;23.432;2023-12-22T01:02:54;38.13;;;21.80;;
84329;SDS011;74510;42.676;23.432;2023-12-22T01:05:20;30.10;;;17.05;;
84329;SDS011;74510;42.676;23.432;2023-12-22T01:07:45;27.77;;;15.35;;
84329;SDS011;74510;42.676;23.432;2023-12-22T01:10:10;31.50;;;18.60;;
84329;SDS011;74510;42.676;23.432;2023-12-22T01:12:36;47.53;;;29.88;;
84329;SDS011;74510;42.676;23.432;2023-12-22T01:15:01;54.25;;;32.95;;
84329;SDS011;74510;42.676;23.432;2023-12-22T01:17:27;42.17;;;25.60;;
84329;SDS011;74510;42.676;23.432;2023-12-22T01:19:53;32.70;;;19.63;;
84329;SDS011;74510;42.676;23.432;2023-12-22T01:22:18;31.08;;;17.45;;
84329;SDS011;74510;42.676;23.432;2023-12-22T01:24:44;30.08;;;16.08;;
84329;SDS011;74510;42.676;23.432;2023-12-22T01:27:10;27.85;;;15.40;;
84329;SDS011;74510;42.676;23.432;2023-12-22T01:29:36;29.40;;;15.10;;
84329;SDS011;74510;42.676;23.432;2023-12-22T01:32:02;29.27;;;15.90;;
84329;SDS011;74510;42.676;23.432;2023-12-22T01:34:27;22.08;;;12.57;;
84329;SDS011;74510;42.676;23.432;2023-12-22T01:36:53;26.35;;;14.18;;
84329;SDS011;74510;42.676;23.432;2023-12-22T01:39:19;23.05;;;13.38;;
84329;SDS011;74510;42.676;23.432;2023-12-22T01:41:44;20.17;;;11.98;;
84329;SDS011;74510;42.676;23.432;2023-12-22T01:44:10;23.63;;;13.05;;
84329;SDS011;74510;42.676;23.432;2023-12-22T01:46:35;26.77;;;14.93;;
84329;SDS011;74510;42.676;23.432;2023-12-22T01:49:01;24.63;;;12.73;;
84329;SDS011;74510;42.676;23.432;2023-12-22T01:51:28;25.40;;;14.40;;
84329;SDS011;74510;42.676;23.432;2023-12-22T01:53:54;29.77;;;15.02;;
84329;SDS011;74510;42.676;23.432;2023-12-22T01:56:20;24.52;;;13.65;;
84329;SDS011;74510;42.676;23.432;2023-12-22T01:58:45;24.80;;;13.25;;
84329;SDS011;74510;42.676;23.432;2023-12-22T02:01:11;22.58;;;12.95;;
84329;SDS011;74510;42.676;23.432;2023-12-22T02:03:38;23.52;;;13.38;;
84329;SDS011;74510;42.676;23.432;2023-12-22T02:06:04;24.77;;;12.98;;
84329;SDS011;74510;42.676;23.432;2023-12-22T02:08:31;29.08;;;14.02;;
84329;SDS011;74510;42.676;23.432;2023-12-22T02:10:58;26.40;;;14.25;;
84329;SDS011;74510;42.676;23.432;2023-12-22T02:13:23;24.65;;;14.25;;
84329;SDS011;74510;42.676;23.432;2023-12-22T02:15:51;23.30;;;13.52;;
84329;SDS011;74510;42.676;23.432;2023-12-22T02:18:31;26.90;;;13.35;;
84329;SDS011;74510;42.676;23.432;2023-12-22T02:21:00;23.13;;;12.43;;
84329;SDS011;74510;42.676;23.432;2023-12-22T02:23:25;24.95;;;14.13;;
84329;SDS011;74510;42.676;23.432;2023-12-22T02:25:52;20.75;;;11.82;;
84329;SDS011;74510;42.676;23.432;2023-12-22T02:28:26;23.00;;;13.20;;
84329;SDS011;74510;42.676;23.432;2023-12-22T02:33:49;23.90;;;12.55;;
84329;SDS011;74510;42.676;23.432;2023-12-22T02:36:18;25.58;;;14.07;;
84329;SDS011;74510;42.676;23.432;2023-12-22T02:38:45;27.02;;;14.10;;
84329;SDS011;74510;42.676;23.432;2023-12-22T02:41:11;27.38;;;15.10;;
84329;SDS011;74510;42.676;23.432;2023-12-22T02:43:37;25.73;;;14.75;;
84329;SDS011;74510;42.676;23.432;2023-12-22T02:46:03;31.52;;;16.65;;
84329;SDS011;74510;42.676;23.432;2023-12-22T02:48:28;28.73;;;16.38;;
84329;SDS011;74510;42.676;23.432;2023-12-22T02:50:54;31.92;;;17.52;;
84329;SDS011;74510;42.676;23.432;2023-12-22T02:53:19;28.00;;;14.75;;
84329;SDS011;74510;42.676;23.432;2023-12-22T02:55:44;35.45;;;21.30;;
84329;SDS011;74510;42.676;23.432;2023-12-22T02:58:10;32.72;;;20.52;;
84329;SDS011;74510;42.676;23.432;2023-12-22T03:00:35;26.08;;;15.73;;
84329;SDS011;74510;42.676;23.432;2023-12-22T03:03:02;29.48;;;17.45;;
84329;SDS011;74510;42.676;23.432;2023-12-22T03:05:27;38.17;;;20.33;;
84329;SDS011;74510;42.676;23.432;2023-12-22T03:07:53;25.63;;;15.23;;
84329;SDS011;74510;42.676;23.432;2023-12-22T03:10:18;25.67;;;15.07;;
84329;SDS011;74510;42.676;23.432;2023-12-22T03:12:43;27.85;;;15.15;;
84329;SDS011;74510;42.676;23.432;2023-12-22T03:15:09;29.17;;;16.27;;
84329;SDS011;74510;42.676;23.432;2023-12-22T03:17:34;30.08;;;17.27;;
84329;SDS011;74510;42.676;23.432;2023-12-22T03:20:00;30.27;;;15.73;;
84329;SDS011;74510;42.676;23.432;2023-12-22T03:22:25;28.95;;;15.73;;
84329;SDS011;74510;42.676;23.432;2023-12-22T03:24:50;24.92;;;13.65;;
84329;SDS011;74510;42.676;23.432;2023-12-22T03:27:16;22.77;;;13.68;;
84329;SDS011;74510;42.676;23.432;2023-12-22T03:29:43;22.83;;;14.48;;
84329;SDS011;74510;42.676;23.432;2023-12-22T03:32:09;23.05;;;12.75;;
84329;SDS011;74510;42.676;23.432;2023-12-22T03:34:34;24.33;;;13.60;;
84329;SDS011;74510;42.676;23.432;2023-12-22T03:36:59;26.83;;;14.13;;
84329;SDS011;74510;42.676;23.432;2023-12-22T03:39:25;24.13;;;14.15;;
84329;SDS011;74510;42.676;23.432;2023-12-22T03:41:50;24.33;;;13.20;;
84329;SDS011;74510;42.676;23.432;2023-12-22T03:44:16;27.20;;;14.02;;
84329;SDS011;74510;42.676;23.432;2023-12-22T03:46:42;27.13;;;14.30;;
84329;SDS011;74510;42.676;23.432;2023-12-22T03:49:07;27.48;;;13.68;;
84329;SDS011;74510;42.676;23.432;2023-12-22T03:51:32;25.77;;;14.23;;
84329;SDS011;74510;42.676;23.432;2023-12-22T03:53:58;23.77;;;12.95;;
84329;SDS011;74510;42.676;23.432;2023-12-22T03:56:23;23.48;;;13.25;;
84329;SDS011;74510;42.676;23.432;2023-12-22T03:58:49;24.83;;;12.60;;
84329;SDS011;74510;42.676;23.432;2023-12-22T04:01:14;24.42;;;13.38;;
84329;SDS011;74510;42.676;23.432;2023-12-22T04:03:40;30.00;;;16.13;;
84329;SDS011;74510;42.676;23.432;2023-12-22T04:06:06;27.27;;;15.35;;
84329;SDS011;74510;42.676;23.432;2023-12-22T04:08:31;38.17;;;16.98;;
84329;SDS011;74510;42.676;23.432;2023-12-22T04:10:56;31.25;;;17.13;;
84329;SDS011;74510;42.676;23.432;2023-12-22T04:13:22;26.70;;;15.18;;
84329;SDS011;74510;42.676;23.432;2023-12-22T04:15:47;28.80;;;14.00;;
84329;SDS011;74510;42.676;23.432;2023-12-22T04:18:13;31.17;;;15.45;;
84329;SDS011;74510;42.676;23.432;2023-12-22T04:20:38;31.50;;;16.63;;
84329;SDS011;74510;42.676;23.432;2023-12-22T04:23:03;28.67;;;15.77;;
84329;SDS011;74510;42.676;23.432;2023-12-22T04:25:30;25.70;;;15.43;;
84329;SDS011;74510;42.676;23.432;2023-12-22T04:27:55;24.58;;;13.73;;
84329;SDS011;74510;42.676;23.432;2023-12-22T04:30:20;32.17;;;17.67;;
84329;SDS011;74510;42.676;23.432;2023-12-22T04:32:46;29.77;;;17.27;;
84329;SDS011;74510;42.676;23.432;2023-12-22T04:35:11;35.17;;;18.85;;
84329;SDS011;74510;42.676;23.432;2023-12-22T04:37:37;35.22;;;20.58;;
84329;SDS011;74510;42.676;23.432;2023-12-22T04:40:02;35.92;;;20.58;;
84329;SDS011;74510;42.676;23.432;2023-12-22T04:42:28;35.53;;;18.95;;
84329;SDS011;74510;42.676;23.432;2023-12-22T04:44:54;35.17;;;19.42;;
84329;SDS011;74510;42.676;23.432;2023-12-22T04:47:19;39.95;;;19.98;;
84329;SDS011;74510;42.676;23.432;2023-12-22T04:49:45;36.33;;;20.25;;
84329;SDS011;74510;42.676;23.432;2023-12-22T04:52:11;35.00;;;18.88;;
84329;SDS011;74510;42.676;23.432;2023-12-22T04:54:37;32.55;;;19.23;;
84329;SDS011;74510;42.676;23.432;2023-12-22T04:57:03;31.83;;;18.10;;
84329;SDS011;74510;42.676;23.432;2023-12-22T04:59:29;39.92;;;22.58;;
84329;SDS011;74510;42.676;23.432;2023-12-22T05:01:54;33.30;;;19.40;;
84329;SDS011;74510;42.676;23.432;2023-12-22T05:04:20;31.95;;;17.20;;
84329;SDS011;74510;42.676;23.432;2023-12-22T05:06:46;31.73;;;17.08;;
84329;SDS011;74510;42.676;23.432;2023-12-22T05:09:12;36.90;;;18.80;;
84329;SDS011;74510;42.676;23.432;2023-12-22T05:11:37;33.85;;;19.42;;
84329;SDS011;74510;42.676;23.432;2023-12-22T05:14:03;36.40;;;20.35;;
84329;SDS011;74510;42.676;23.432;2023-12-22T05:16:29;36.83;;;19.70;;
84329;SDS011;74510;42.676;23.432;2023-12-22T05:18:56;35.28;;;20.08;;
84329;SDS011;74510;42.676;23.432;2023-12-22T05:21:24;34.45;;;21.08;;
84329;SDS011;74510;42.676;23.432;2023-12-22T05:23:50;32.10;;;19.48;;
84329;SDS011;74510;42.676;23.432;2023-12-22T05:26:19;28.65;;;17.30;;
84329;SDS011;74510;42.676;23.432;2023-12-22T05:28:45;29.63;;;18.63;;
84329;SDS011;74510;42.676;23.432;2023-12-22T05:31:11;31.08;;;18.13;;
84329;SDS011;74510;42.676;23.432;2023-12-22T05:33:37;28.17;;;14.82;;
84329;SDS011;74510;42.676;23.432;2023-12-22T05:36:02;25.63;;;15.27;;
84329;SDS011;74510;42.676;23.432;2023-12-22T05:38:28;33.53;;;20.13;;
84329;SDS011;74510;42.676;23.432;2023-12-22T05:40:54;39.00;;;19.52;;
84329;SDS011;74510;42.676;23.432;2023-12-22T05:43:20;32.30;;;18.13;;
84329;SDS011;74510;42.676;23.432;2023-12-22T05:45:45;27.33;;;15.07;;
84329;SDS011;74510;42.676;23.432;2023-12-22T05:48:11;24.88;;;15.20;;
84329;SDS011;74510;42.676;23.432;2023-12-22T05:50:36;28.83;;;17.35;;
84329;SDS011;74510;42.676;23.432;2023-12-22T05:53:02;29.05;;;15.55;;
84329;SDS011;74510;42.676;23.432;2023-12-22T05:55:27;21.52;;;13.13;;
84329;SDS011;74510;42.676;23.432;2023-12-22T05:57:52;33.28;;;16.58;;
84329;SDS011;74510;42.676;23.432;2023-12-22T06:00:18;29.80;;;17.83;;
84329;SDS011;74510;42.676;23.432;2023-12-22T06:02:44;32.33;;;19.60;;
84329;SDS011;74510;42.676;23.432;2023-12-22T06:05:09;24.90;;;14.95;;
84329;SDS011;74510;42.676;23.432;2023-12-22T06:07:36;32.63;;;20.95;;
84329;SDS011;74510;42.676;23.432;2023-12-22T06:10:01;37.60;;;20.23;;
84329;SDS011;74510;42.676;23.432;2023-12-22T06:12:26;36.72;;;21.40;;
84329;SDS011;74510;42.676;23.432;2023-12-22T06:14:52;39.55;;;23.73;;
84329;SDS011;74510;42.676;23.432;2023-12-22T06:17:17;34.90;;;21.23;;
84329;SDS011;74510;42.676;23.432;2023-12-22T06:19:43;41.55;;;29.00;;
84329;SDS011;74510;42.676;23.432;2023-12-22T06:22:08;42.00;;;26.25;;
84329;SDS011;74510;42.676;23.432;2023-12-22T06:24:36;44.15;;;31.20;;
84329;SDS011;74510;42.676;23.432;2023-12-22T06:27:01;38.90;;;24.30;;
84329;SDS011;74510;42.676;23.432;2023-12-22T06:29:27;44.50;;;24.38;;
84329;SDS011;74510;42.676;23.432;2023-12-22T06:31:52;42.70;;;26.25;;
84329;SDS011;74510;42.676;23.432;2023-12-22T06:34:18;38.20;;;23.58;;
84329;SDS011;74510;42.676;23.432;2023-12-22T06:36:43;39.40;;;21.85;;
84329;SDS011;74510;42.676;23.432;2023-12-22T06:39:09;42.92;;;22.30;;
84329;SDS011;74510;42.676;23.432;2023-12-22T06:41:34;39.67;;;20.92;;
84329;SDS011;74510;42.676;23.432;2023-12-22T06:44:00;27.40;;;16.48;;
84329;SDS011;74510;42.676;23.432;2023-12-22T06:46:25;24.88;;;14.85;;
84329;SDS011;74510;42.676;23.432;2023-12-22T06:48:52;19.05;;;12.70;;
84329;SDS011;74510;42.676;23.432;2023-12-22T06:51:18;25.73;;;15.93;;
84329;SDS011;74510;42.676;23.432;2023-12-22T06:53:47;23.88;;;14.18;;
84329;SDS011;74510;42.676;23.432;2023-12-22T06:56:17;30.17;;;20.23;;
84329;SDS011;74510;42.676;23.432;2023-12-22T06:58:47;30.20;;;18.02;;
84329;SDS011;74510;42.676;23.432;2023-12-22T07:01:33;30.20;;;17.48;;
84329;SDS011;74510;42.676;23.432;2023-12-22T07:03:59;42.38;;;22.85;;
84329;SDS011;74510;42.676;23.432;2023-12-22T07:06:26;47.60;;;24.40;;
84329;SDS011;74510;42.676;23.432;2023-12-22T07:09:35;42.13;;;25.15;;
84329;SDS011;74510;42.676;23.432;2023-12-22T07:11:46;42.05;;;23.17;;
84329;SDS011;74510;42.676;23.432;2023-12-22T07:14:13;45.15;;;25.58;;
84329;SDS011;74510;42.676;23.432;2023-12-22T07:16:38;58.72;;;28.73;;
84329;SDS011;74510;42.676;23.432;2023-12-22T07:19:04;62.75;;;34.65;;
84329;SDS011;74510;42.676;23.432;2023-12-22T07:21:30;55.70;;;29.95;;
84329;SDS011;74510;42.676;23.432;2023-12-22T07:23:56;57.38;;;31.05;;
84329;SDS011;74510;42.676;23.432;2023-12-22T07:26:23;64.32;;;32.72;;
84329;SDS011;74510;42.676;23.432;2023-12-22T07:28:49;49.40;;;29.35;;
84329;SDS011;74510;42.676;23.432;2023-12-22T07:31:15;50.75;;;26.95;;
84329;SDS011;74510;42.676;23.432;2023-12-22T07:33:40;46.45;;;27.23;;
84329;SDS011;74510;42.676;23.432;2023-12-22T07:36:06;46.00;;;28.00;;
84329;SDS011;74510;42.676;23.432;2023-12-22T07:38:32;50.10;;;27.95;;
84329;SDS011;74510;42.676;23.432;2023-12-22T07:40:58;52.58;;;29.48;;
84329;SDS011;74510;42.676;23.432;2023-12-22T07:43:23;58.05;;;30.98;;
84329;SDS011;74510;42.676;23.432;2023-12-22T07:45:49;54.88;;;29.90;;
84329;SDS011;74510;42.676;23.432;2023-12-22T07:48:16;36.53;;;21.13;;
84329;SDS011;74510;42.676;23.432;2023-12-22T07:50:41;41.70;;;25.42;;
84329;SDS011;74510;42.676;23.432;2023-12-22T07:53:07;44.08;;;27.05;;
84329;SDS011;74510;42.676;23.432;2023-12-22T07:55:33;40.88;;;23.40;;
84329;SDS011;74510;42.676;23.432;2023-12-22T07:57:59;49.78;;;26.92;;
84329;SDS011;74510;42.676;23.432;2023-12-22T08:00:24;49.72;;;28.45;;
84329;SDS011;74510;42.676;23.432;2023-12-22T08:02:50;49.97;;;30.27;;
84329;SDS011;74510;42.676;23.432;2023-12-22T08:05:15;52.75;;;29.27;;
84329;SDS011;74510;42.676;23.432;2023-12-22T08:07:40;57.40;;;29.30;;
84329;SDS011;74510;42.676;23.432;2023-12-22T08:10:06;50.72;;;28.67;;
84329;SDS011;74510;42.676;23.432;2023-12-22T08:12:32;52.72;;;31.45;;
84329;SDS011;74510;42.676;23.432;2023-12-22T08:14:57;50.47;;;29.40;;
84329;SDS011;74510;42.676;23.432;2023-12-22T08:17:23;62.58;;;33.03;;
84329;SDS011;74510;42.676;23.432;2023-12-22T08:19:49;76.78;;;39.67;;
84329;SDS011;74510;42.676;23.432;2023-12-22T08:22:15;79.90;;;41.90;;
84329;SDS011;74510;42.676;23.432;2023-12-22T08:24:40;73.35;;;36.33;;
84329;SDS011;74510;42.676;23.432;2023-12-22T08:27:06;81.18;;;43.83;;
84329;SDS011;74510;42.676;23.432;2023-12-22T08:29:32;67.47;;;37.97;;
84329;SDS011;74510;42.676;23.432;2023-12-22T08:31:58;51.20;;;29.02;;
84329;SDS011;74510;42.676;23.432;2023-12-22T08:34:23;50.00;;;29.27;;
84329;SDS011;74510;42.676;23.432;2023-12-22T08:36:49;62.88;;;34.05;;
84329;SDS011;74510;42.676;23.432;2023-12-22T08:39:14;65.38;;;36.70;;
84329;SDS011;74510;42.676;23.432;2023-12-22T08:41:40;69.55;;;35.05;;
84329;SDS011;74510;42.676;23.432;2023-12-22T08:44:06;76.85;;;37.53;;
84329;SDS011;74510;42.676;23.432;2023-12-22T08:46:31;68.80;;;37.00;;
84329;SDS011;74510;42.676;23.432;2023-12-22T08:48:57;63.60;;;38.53;;
84329;SDS011;74510;42.676;23.432;2023-12-22T08:51:24;58.90;;;32.80;;
84329;SDS011;74510;42.676;23.432;2023-12-22T08:53:53;65.30;;;34.50;;
84329;SDS011;74510;42.676;23.432;2023-12-22T08:56:22;55.53;;;32.50;;
84329;SDS011;74510;42.676;23.432;2023-12-22T08:58:48;57.38;;;33.28;;
84329;SDS011;74510;42.676;23.432;2023-12-22T09:01:17;71.28;;;39.83;;
84329;SDS011;74510;42.676;23.432;2023-12-22T09:03:43;61.15;;;35.05;;
84329;SDS011;74510;42.676;23.432;2023-12-22T09:06:13;60.13;;;33.50;;
84329;SDS011;74510;42.676;23.432;2023-12-22T09:08:39;65.20;;;36.35;;
84329;SDS011;74510;42.676;23.432;2023-12-22T09:11:05;65.97;;;39.85;;
84329;SDS011;74510;42.676;23.432;2023-12-22T09:13:30;46.60;;;27.50;;
84329;SDS011;74510;42.676;23.432;2023-12-22T09:15:59;56.67;;;32.20;;
84329;SDS011;74510;42.676;23.432;2023-12-22T09:18:24;70.95;;;42.80;;
84329;SDS011;74510;42.676;23.432;2023-12-22T09:20:49;48.67;;;27.58;;
84329;SDS011;74510;42.676;23.432;2023-12-22T09:23:15;48.00;;;24.23;;
84329;SDS011;74510;42.676;23.432;2023-12-22T09:25:40;36.75;;;19.25;;
84329;SDS011;74510;42.676;23.432;2023-12-22T09:28:06;35.42;;;18.60;;
84329;SDS011;74510;42.676;23.432;2023-12-22T09:30:31;30.40;;;17.25;;
84329;SDS011;74510;42.676;23.432;2023-12-22T09:32:57;39.65;;;22.40;;
84329;SDS011;74510;42.676;23.432;2023-12-22T09:35:23;32.08;;;17.70;;
84329;SDS011;74510;42.676;23.432;2023-12-22T09:37:50;30.33;;;17.50;;
84329;SDS011;74510;42.676;23.432;2023-12-22T09:40:15;36.80;;;19.77;;
84329;SDS011;74510;42.676;23.432;2023-12-22T09:42:41;35.63;;;20.02;;
84329;SDS011;74510;42.676;23.432;2023-12-22T09:45:10;40.00;;;20.08;;
84329;SDS011;74510;42.676;23.432;2023-12-22T09:47:37;31.20;;;18.70;;
84329;SDS011;74510;42.676;23.432;2023-12-22T09:50:03;36.47;;;20.25;;
84329;SDS011;74510;42.676;23.432;2023-12-22T09:52:30;44.45;;;28.05;;
84329;SDS011;74510;42.676;23.432;2023-12-22T09:54:57;40.92;;;25.95;;
84329;SDS011;74510;42.676;23.432;2023-12-22T09:57:23;45.88;;;26.42;;
84329;SDS011;74510;42.676;23.432;2023-12-22T09:59:50;39.97;;;23.35;;
84329;SDS011;74510;42.676;23.432;2023-12-22T10:02:17;38.83;;;24.30;;
84329;SDS011;74510;42.676;23.432;2023-12-22T10:04:43;45.22;;;23.92;;
84329;SDS011;74510;42.676;23.432;2023-12-22T10:07:08;40.30;;;24.13;;
84329;SDS011;74510;42.676;23.432;2023-12-22T10:09:36;34.03;;;22.55;;
84329;SDS011;74510;42.676;23.432;2023-12-22T10:12:02;39.00;;;22.08;;
84329;SDS011;74510;42.676;23.432;2023-12-22T10:14:29;36.45;;;23.08;;
84329;SDS011;74510;42.676;23.432;2023-12-22T10:16:56;38.85;;;22.65;;
84329;SDS011;74510;42.676;23.432;2023-12-22T10:19:22;48.97;;;26.83;;
84329;SDS011;74510;42.676;23.432;2023-12-22T10:21:50;43.10;;;23.80;;
84329;SDS011;74510;42.676;23.432;2023-12-22T10:27:12;36.22;;;22.25;;
84329;SDS011;74510;42.676;23.432;2023-12-22T10:29:38;33.65;;;19.20;;
84329;SDS011;74510;42.676;23.432;2023-12-22T10:32:05;36.30;;;19.10;;
84329;SDS011;74510;42.676;23.432;2023-12-22T10:34:31;36.05;;;22.00;;
84329;SDS011;74510;42.676;23.432;2023-12-22T10:36:57;39.03;;;23.60;;
84329;SDS011;74510;42.676;23.432;2023-12-22T10:39:26;56.03;;;32.53;;
84329;SDS011;74510;42.676;23.432;2023-12-22T10:41:53;66.90;;;36.67;;
84329;SDS011;74510;42.676;23.432;2023-12-22T10:44:19;59.83;;;36.78;;
84329;SDS011;74510;42.676;23.432;2023-12-22T10:46:44;61.22;;;35.83;;
84329;SDS011;74510;42.676;23.432;2023-12-22T10:49:12;53.70;;;33.17;;
84329;SDS011;74510;42.676;23.432;2023-12-22T10:51:37;54.00;;;32.10;;
84329;SDS011;74510;42.676;23.432;2023-12-22T10:54:04;70.32;;;38.30;;
84329;SDS011;74510;42.676;23.432;2023-12-22T10:56:30;58.65;;;29.98;;
84329;SDS011;74510;42.676;23.432;2023-12-22T10:58:56;57.83;;;33.10;;
84329;SDS011;74510;42.676;23.432;2023-12-22T11:01:23;53.08;;;29.05;;
84329;SDS011;74510;42.676;23.432;2023-12-22T11:04:03;40.20;;;23.20;;
84329;SDS011;74510;42.676;23.432;2023-12-22T11:06:37;39.42;;;19.95;;
84329;SDS011;74510;42.676;23.432;2023-12-22T11:09:09;47.53;;;24.77;;
84329;SDS011;74510;42.676;23.432;2023-12-22T11:11:38;32.42;;;19.30;;
84329;SDS011;74510;42.676;23.432;2023-12-22T11:14:05;31.05;;;18.73;;
84329;SDS011;74510;42.676;23.432;2023-12-22T11:16:32;31.42;;;17.33;;
84329;SDS011;74510;42.676;23.432;2023-12-22T11:18:59;24.48;;;12.98;;
84329;SDS011;74510;42.676;23.432;2023-12-22T11:21:25;22.20;;;13.80;;
84329;SDS011;74510;42.676;23.432;2023-12-22T11:23:52;11.35;;;8.60;;
84329;SDS011;74510;42.676;23.432;2023-12-22T11:26:18;16.80;;;10.00;;
84329;SDS011;74510;42.676;23.432;2023-12-22T11:28:45;22.42;;;10.85;;
84329;SDS011;74510;42.676;23.432;2023-12-22T11:31:14;12.07;;;5.70;;
84329;SDS011;74510;42.676;23.432;2023-12-22T11:33:46;6.85;;;4.32;;
84329;SDS011;74510;42.676;23.432;2023-12-22T11:36:13;4.55;;;3.58;;
84329;SDS011;74510;42.676;23.432;2023-12-22T11:38:42;11.95;;;5.97;;
84329;SDS011;74510;42.676;23.432;2023-12-22T11:41:10;5.35;;;3.20;;
84329;SDS011;74510;42.676;23.432;2023-12-22T11:43:39;4.53;;;3.10;;
84329;SDS011;74510;42.676;23.432;2023-12-22T11:46:06;4.70;;;2.97;;
84329;SDS011;74510;42.676;23.432;2023-12-22T11:48:31;9.02;;;4.43;;
84329;SDS011;74510;42.676;23.432;2023-12-22T11:50:57;9.35;;;4.07;;
84329;SDS011;74510;42.676;23.432;2023-12-22T11:53:25;5.68;;;4.03;;
84329;SDS011;74510;42.676;23.432;2023-12-22T11:55:56;12.38;;;6.95;;
84329;SDS011;74510;42.676;23.432;2023-12-22T11:58:46;11.68;;;7.05;;
84329;SDS011;74510;42.676;23.432;2023-12-22T12:01:24;12.13;;;5.80;;
84329;SDS011;74510;42.676;23.432;2023-12-22T12:03:51;6.80;;;4.78;;
84329;SDS011;74510;42.676;23.432;2023-12-22T12:08:55;9.50;;;5.30;;
84329;SDS011;74510;42.676;23.432;2023-12-22T12:11:22;8.85;;;5.57;;
84329;SDS011;74510;42.676;23.432;2023-12-22T12:13:48;10.80;;;6.25;;
84329;SDS011;74510;42.676;23.432;2023-12-22T12:16:15;9.95;;;6.68;;
84329;SDS011;74510;42.676;23.432;2023-12-22T12:18:44;10.68;;;6.22;;
84329;SDS011;74510;42.676;23.432;2023-12-22T12:21:10;8.90;;;6.13;;
84329;SDS011;74510;42.676;23.432;2023-12-22T12:23:36;7.15;;;3.53;;
84329;SDS011;74510;42.676;23.432;2023-12-22T12:26:03;3.28;;;1.95;;
84329;SDS011;74510;42.676;23.432;2023-12-22T12:28:32;6.82;;;4.75;;
84329;SDS011;74510;42.676;23.432;2023-12-22T12:33:25;4.88;;;2.83;;
84329;SDS011;74510;42.676;23.432;2023-12-22T12:35:52;10.23;;;5.88;;
84329;SDS011;74510;42.676;23.432;2023-12-22T12:38:21;16.08;;;8.75;;
84329;SDS011;74510;42.676;23.432;2023-12-22T12:40:50;9.40;;;5.32;;
84329;SDS011;74510;42.676;23.432;2023-12-22T12:43:16;12.73;;;6.15;;
84329;SDS011;74510;42.676;23.432;2023-12-22T12:45:43;14.15;;;5.70;;
84329;SDS011;74510;42.676;23.432;2023-12-22T12:48:08;21.67;;;8.23;;
84329;SDS011;74510;42.676;23.432;2023-12-22T12:50:34;9.98;;;4.90;;
84329;SDS011;74510;42.676;23.432;2023-12-22T12:53:00;24.73;;;10.63;;
84329;SDS011;74510;42.676;23.432;2023-12-22T12:55:26;16.45;;;6.80;;
84329;SDS011;74510;42.676;23.432;2023-12-22T12:57:52;12.90;;;6.47;;
84329;SDS011;74510;42.676;23.432;2023-12-22T13:00:27;25.17;;;11.75;;
84329;SDS011;74510;42.676;23.432;2023-12-22T13:02:54;12.52;;;6.03;;
84329;SDS011;74510;42.676;23.432;2023-12-22T13:05:29;22.67;;;9.55;;
84329;SDS011;74510;42.676;23.432;2023-12-22T13:08:08;19.85;;;8.82;;
84329;SDS011;74510;42.676;23.432;2023-12-22T13:10:34;13.05;;;6.15;;
84329;SDS011;74510;42.676;23.432;2023-12-22T13:13:00;18.65;;;7.47;;
84329;SDS011;74510;42.676;23.432;2023-12-22T13:15:25;31.70;;;14.13;;
84329;SDS011;74510;42.676;23.432;2023-12-22T13:17:51;36.00;;;13.45;;
84329;SDS011;74510;42.676;23.432;2023-12-22T13:20:17;26.02;;;11.80;;
84329;SDS011;74510;42.676;23.432;2023-12-22T13:22:43;18.42;;;11.18;;
84329;SDS011;74510;42.676;23.432;2023-12-22T13:25:09;14.40;;;7.53;;
84329;SDS011;74510;42.676;23.432;2023-12-22T13:27:45;10.20;;;6.40;;
84329;SDS011;74510;42.676;23.432;2023-12-22T13:30:11;6.32;;;3.53;;
84329;SDS011;74510;42.676;23.432;2023-12-22T13:32:36;10.98;;;5.82;;
84329;SDS011;74510;42.676;23.432;2023-12-22T13:35:02;14.85;;;6.85;;
84329;SDS011;74510;42.676;23.432;2023-12-22T13:37:28;8.40;;;5.07;;
84329;SDS011;74510;42.676;23.432;2023-12-22T13:39:55;7.75;;;4.70;;
84329;SDS011;74510;42.676;23.432;2023-12-22T13:42:22;8.85;;;5.18;;
84329;SDS011;74510;42.676;23.432;2023-12-22T13:44:48;8.30;;;4.55;;
84329;SDS011;74510;42.676;23.432;2023-12-22T13:47:20;8.80;;;5.60;;
84329;SDS011;74510;42.676;23.432;2023-12-22T13:49:46;14.55;;;7.47;;
84329;SDS011;74510;42.676;23.432;2023-12-22T13:52:45;12.32;;;6.57;;
84329;SDS011;74510;42.676;23.432;2023-12-22T13:55:13;8.80;;;4.40;;
84329;SDS011;74510;42.676;23.432;2023-12-22T13:57:40;5.60;;;4.53;;
84329;SDS011;74510;42.676;23.432;2023-12-22T14:00:28;8.00;;;4.82;;
84329;SDS011;74510;42.676;23.432;2023-12-22T14:02:54;9.75;;;6.55;;
84329;SDS011;74510;42.676;23.432;2023-12-22T14:05:20;10.95;;;7.75;;
84329;SDS011;74510;42.676;23.432;2023-12-22T14:07:45;7.28;;;5.20;;
84329;SDS011;74510;42.676;23.432;2023-12-22T14:10:11;14.43;;;8.25;;
84329;SDS011;74510;42.676;23.432;2023-12-22T14:12:37;8.32;;;5.22;;
84329;SDS011;74510;42.676;23.432;2023-12-22T14:15:09;7.82;;;5.05;;
84329;SDS011;74510;42.676;23.432;2023-12-22T14:17:36;6.45;;;4.00;;
84329;SDS011;74510;42.676;23.432;2023-12-22T14:20:02;11.70;;;6.57;;
84329;SDS011;74510;42.676;23.432;2023-12-22T14:24:55;14.80;;;6.90;;